createdAt,value
2023-04-11T00:00:58.693Z,63.40
2023-04-11T00:06:05.598Z,63.40
2023-04-11T00:11:09.018Z,63.60
2023-04-11T00:16:12.653Z,63.70
2023-04-11T00:21:17.816Z,63.70
2023-04-11T00:26:22.404Z,63.80
2023-04-11T00:31:25.907Z,64.00
2023-04-11T00:36:32.022Z,64.20
2023-04-11T00:41:35.757Z,64.20
2023-04-11T00:46:43.165Z,64.20
2023-04-11T00:51:49.311Z,64.10
2023-04-11T00:56:53.363Z,64.30
2023-04-11T01:01:57.158Z,64.40
2023-04-11T01:07:06.544Z,64.50
2023-04-11T01:12:11.640Z,64.70
2023-04-11T01:17:15.389Z,64.70
2023-04-11T01:22:23.871Z,64.60
2023-04-11T01:27:31.060Z,64.60
2023-04-11T01:32:34.672Z,64.80
2023-04-11T01:37:38.343Z,65.00
2023-04-11T01:42:43.260Z,65.10
2023-04-11T01:47:47.940Z,65.20
2023-04-11T01:52:53.705Z,65.10
2023-04-11T01:57:58.409Z,65.00
2023-04-11T02:03:02.105Z,65.20
2023-04-11T02:08:06.210Z,65.20
2023-04-11T02:13:10.941Z,65.10
2023-04-11T02:18:14.635Z,65.30
2023-04-11T02:23:18.046Z,65.40
2023-04-11T02:28:23.465Z,65.30
2023-04-11T02:33:27.112Z,65.40
2023-04-11T02:38:30.865Z,65.50
2023-04-11T02:43:35.631Z,65.50
2023-04-11T02:48:39.245Z,65.60
2023-04-11T02:53:42.914Z,65.50
2023-04-11T02:58:47.687Z,65.30
2023-04-11T03:03:51.317Z,65.40
2023-04-11T03:08:56.052Z,65.80
2023-04-11T03:14:01.452Z,65.80
2023-04-11T03:19:05.965Z,66.10
2023-04-11T03:24:09.829Z,66.20
2023-04-11T03:29:14.981Z,66.20
2023-04-11T03:34:19.049Z,66.30
2023-04-11T03:39:22.819Z,66.30
2023-04-11T03:44:27.559Z,66.50
2023-04-11T03:49:31.063Z,66.80
2023-04-11T03:54:34.612Z,66.80
2023-04-11T03:59:39.639Z,67.00
2023-04-11T04:04:43.513Z,67.10
2023-04-11T04:09:47.449Z,67.00
2023-04-11T04:14:53.076Z,66.90
2023-04-11T04:19:56.467Z,67.20
2023-04-11T04:24:59.827Z,67.40
2023-04-11T04:30:04.897Z,67.40
2023-04-11T04:35:09.109Z,67.50
2023-04-11T04:40:14.355Z,67.50
2023-04-11T04:45:19.154Z,67.50
2023-04-11T04:50:22.679Z,67.50
2023-04-11T04:55:27.121Z,67.60
2023-04-11T05:00:33.615Z,67.70
2023-04-11T05:05:37.053Z,67.70
2023-04-11T05:10:40.819Z,67.60
2023-04-11T05:15:50.231Z,67.60
2023-04-11T05:20:53.684Z,67.80
2023-04-11T05:25:57.078Z,68.00
2023-04-11T05:31:02.256Z,68.80
2023-04-11T05:36:06.728Z,67.90
2023-04-11T05:41:10.336Z,68.00
2023-04-11T05:46:15.139Z,68.00
2023-04-11T05:51:18.521Z,67.80
2023-04-11T05:56:22.255Z,67.60
2023-04-11T06:01:27.047Z,67.80
2023-04-11T06:06:31.593Z,69.00
2023-04-11T06:11:35.209Z,69.10
2023-04-11T06:16:40.051Z,68.10
2023-04-11T06:21:43.478Z,68.40
2023-04-11T06:26:47.152Z,68.40
2023-04-11T06:31:51.884Z,68.40
2023-04-11T06:36:55.312Z,68.50
2023-04-11T06:41:58.725Z,68.70
2023-04-11T06:47:03.605Z,68.70
2023-04-11T06:52:07.212Z,68.70
2023-04-11T06:57:11.214Z,68.60
2023-04-11T07:02:16.864Z,68.60
2023-04-11T07:07:20.763Z,68.70
2023-04-11T07:12:24.671Z,68.80
2023-04-11T07:17:29.380Z,68.70
2023-04-11T07:22:33.025Z,68.80
2023-04-11T07:27:36.749Z,68.80
2023-04-11T07:32:41.544Z,68.80
2023-04-11T07:37:45.836Z,68.90
2023-04-11T07:42:49.215Z,68.80
2023-04-11T07:47:53.996Z,68.90
2023-04-11T07:52:57.766Z,68.90
2023-04-11T07:58:01.132Z,69.00
2023-04-11T08:03:08.801Z,69.00
2023-04-11T08:08:12.490Z,69.10
2023-04-11T08:13:16.214Z,69.20
2023-04-11T08:18:21.693Z,69.10
2023-04-11T08:23:25.139Z,69.00
2023-04-11T08:28:28.611Z,69.00
2023-04-11T08:33:34.544Z,69.10
2023-04-11T08:38:38.704Z,69.00
2023-04-11T08:43:43.882Z,69.00
2023-04-11T08:48:48.877Z,69.00
2023-04-11T08:53:54.742Z,69.10
2023-04-11T08:58:58.359Z,69.20
2023-04-11T09:04:05.641Z,69.30
2023-04-11T09:09:09.743Z,69.40
2023-04-11T09:14:13.677Z,69.60
2023-04-11T09:19:26.187Z,69.60
2023-04-11T09:24:30.938Z,69.70
2023-04-11T09:29:40.307Z,69.90
2023-04-11T09:34:45.320Z,69.70
2023-04-11T09:39:59.253Z,69.60
2023-04-11T09:45:03.895Z,69.60
2023-04-11T09:50:09.508Z,69.30
2023-04-11T09:55:16.403Z,69.30
2023-04-11T10:00:22.117Z,68.50
2023-04-11T10:05:28.924Z,68.20
2023-04-11T10:10:32.666Z,67.80
2023-04-11T10:15:36.079Z,67.00
2023-04-11T10:20:46.131Z,66.70
2023-04-11T10:25:58.482Z,66.70
2023-04-11T10:31:04.594Z,66.80
2023-04-11T10:36:11.438Z,66.80
2023-04-11T10:41:31.808Z,65.90
2023-04-11T10:46:46.258Z,65.80
2023-04-11T10:51:51.041Z,65.60
2023-04-11T10:56:57.877Z,64.20
2023-04-11T11:02:02.397Z,63.10
2023-04-11T11:07:13.306Z,61.00
2023-04-11T11:12:18.020Z,59.70
2023-04-11T11:17:23.690Z,60.20
2023-04-11T11:22:28.724Z,61.60
2023-04-11T11:27:32.333Z,64.40
2023-04-11T11:32:36.241Z,67.50
2023-04-11T11:37:41.913Z,69.20
2023-04-11T11:42:45.531Z,71.70
2023-04-11T11:47:50.805Z,72.60
2023-04-11T11:52:56.674Z,72.20
2023-04-11T11:58:02.296Z,73.50
2023-04-11T12:03:06.964Z,74.10
2023-04-11T12:08:12.363Z,74.40
2023-04-11T12:13:20.669Z,75.20
2023-04-11T12:18:25.503Z,76.10
2023-04-11T12:23:30.373Z,75.90
2023-04-11T12:28:33.822Z,75.70
2023-04-11T12:33:37.492Z,76.20
2023-04-11T12:38:42.301Z,76.60
2023-04-11T12:43:45.964Z,77.50
2023-04-11T12:48:49.338Z,77.70
2023-04-11T12:53:54.144Z,77.30
2023-04-11T12:58:57.902Z,77.50
2023-04-11T13:04:01.959Z,77.80
2023-04-11T13:09:07.784Z,77.60
2023-04-11T13:14:11.672Z,77.40
2023-04-11T13:19:15.125Z,77.50
2023-04-11T13:24:20.031Z,77.10
2023-04-11T13:29:23.404Z,76.90
2023-04-11T13:34:27.279Z,77.00
2023-04-11T13:39:31.998Z,77.30
2023-04-11T13:44:35.450Z,76.90
2023-04-11T13:49:38.865Z,77.50
2023-04-11T13:54:43.607Z,77.80
2023-04-11T13:59:47.053Z,76.80
2023-04-11T14:04:51.047Z,76.10
2023-04-11T14:09:55.846Z,75.80
2023-04-11T14:14:59.259Z,75.70
2023-04-11T14:20:05.508Z,75.70
2023-04-11T14:25:11.586Z,76.00
2023-04-11T14:30:15.232Z,76.10
2023-04-11T14:35:18.611Z,75.70
2023-04-11T14:40:23.587Z,76.10
2023-04-11T14:45:27.033Z,76.10
2023-04-11T14:50:30.639Z,75.90
2023-04-11T14:55:35.409Z,75.60
2023-04-11T15:00:38.822Z,75.50
2023-04-11T15:05:42.286Z,75.50
2023-04-11T15:10:49.570Z,75.40
2023-04-11T15:15:53.529Z,74.90
2023-04-11T15:20:58.986Z,74.60
2023-04-11T15:26:04.746Z,74.00
2023-04-11T15:31:10.044Z,73.60
2023-04-11T15:36:13.592Z,73.30
2023-04-11T15:41:18.400Z,72.90
2023-04-11T15:46:22.087Z,71.10
2023-04-11T15:51:27.258Z,71.30
2023-04-11T15:56:33.290Z,72.50
2023-04-11T16:01:36.905Z,73.30
2023-04-11T16:06:40.596Z,73.70
2023-04-11T16:11:45.397Z,73.50
2023-04-11T16:16:48.842Z,72.10
2023-04-11T16:21:52.791Z,71.20
2023-04-11T16:26:58.422Z,68.80
2023-04-11T16:32:02.368Z,66.20
2023-04-11T16:37:06.508Z,65.20
2023-04-11T16:42:11.259Z,63.80
2023-04-11T16:47:14.703Z,64.60
2023-04-11T16:52:18.097Z,64.70
2023-04-11T16:57:23.085Z,64.60
2023-04-11T17:02:26.665Z,64.40
2023-04-11T17:07:30.208Z,64.20
2023-04-11T17:12:34.927Z,64.20
2023-04-11T17:17:38.352Z,64.70
2023-04-11T17:22:44.374Z,65.40
2023-04-11T17:27:49.455Z,65.30
2023-04-11T17:32:55.385Z,65.80
2023-04-11T17:37:59.142Z,67.40
2023-04-11T17:43:04.304Z,66.00
2023-04-11T17:48:08.808Z,66.80
2023-04-11T17:53:12.643Z,67.40
2023-04-11T17:58:17.896Z,67.90
2023-04-11T18:03:22.352Z,68.50
2023-04-11T18:08:46.833Z,69.30
2023-04-11T18:13:52.064Z,69.80
2023-04-11T18:18:55.505Z,70.10
2023-04-11T18:23:59.267Z,70.40
2023-04-11T18:29:04.343Z,71.40
2023-04-11T18:34:09.139Z,71.80
2023-04-11T18:39:12.845Z,72.30
2023-04-11T18:44:17.675Z,73.10
2023-04-11T18:49:21.639Z,73.70
2023-04-11T18:54:25.049Z,73.30
2023-04-11T18:59:31.410Z,73.50
2023-04-11T19:04:37.594Z,73.70
2023-04-11T19:09:41.362Z,74.20
2023-04-11T19:14:46.121Z,74.00
2023-04-11T19:19:49.814Z,73.80
2023-04-11T19:24:53.574Z,74.40
2023-04-11T19:29:58.342Z,75.60
2023-04-11T19:35:02.054Z,76.00
2023-04-11T19:40:07.526Z,76.20
2023-04-11T19:45:12.886Z,76.70
2023-04-11T19:50:16.580Z,76.70
2023-04-11T19:55:20.055Z,76.20
2023-04-11T20:00:26.655Z,76.20
2023-04-11T20:05:32.161Z,76.50
2023-04-11T20:10:37.313Z,76.70
2023-04-11T20:15:42.320Z,76.60
2023-04-11T20:20:47.043Z,76.50
2023-04-11T20:25:50.842Z,76.70
2023-04-11T20:30:55.927Z,77.10
2023-04-11T20:35:59.654Z,77.10
2023-04-11T20:41:04.014Z,77.00
2023-04-11T20:46:09.294Z,76.80
2023-04-11T20:51:14.196Z,76.80
2023-04-11T20:56:18.020Z,77.00
2023-04-11T21:01:22.782Z,77.10
2023-04-11T21:06:26.796Z,77.30
2023-04-11T21:11:30.281Z,77.10
2023-04-11T21:16:35.201Z,77.20
2023-04-11T21:21:40.392Z,77.40
2023-04-11T21:26:43.957Z,77.20
2023-04-11T21:31:48.765Z,77.00
2023-04-11T21:36:52.194Z,77.10
2023-04-11T21:41:55.588Z,76.90
2023-04-11T21:47:00.700Z,76.80
2023-04-11T21:52:04.147Z,76.60
2023-04-11T21:57:07.586Z,76.30
2023-04-11T22:02:12.491Z,76.20
2023-04-11T22:07:18.007Z,76.30
2023-04-11T22:12:21.390Z,76.40
2023-04-11T22:17:26.236Z,76.60
2023-04-11T22:22:30.210Z,76.70
2023-04-11T22:27:35.346Z,76.70
2023-04-11T22:32:40.926Z,76.90
2023-04-11T22:37:45.449Z,77.00
2023-04-11T22:42:50.584Z,77.00
2023-04-11T22:48:00.087Z,77.20
2023-04-11T22:53:03.727Z,77.00
2023-04-11T22:58:07.743Z,77.00
2023-04-11T23:03:14.377Z,77.00
2023-04-11T23:08:18.181Z,76.80
2023-04-11T23:13:22.352Z,76.60
2023-04-11T23:18:27.094Z,76.80
2023-04-11T23:23:30.538Z,76.60
2023-04-11T23:28:35.285Z,76.70
2023-04-11T23:33:41.026Z,76.80
2023-04-11T23:38:45.021Z,76.80
2023-04-11T23:43:48.483Z,76.80
2023-04-11T23:48:54.913Z,77.00
2023-04-11T23:53:58.473Z,76.90
2023-04-11T23:59:01.962Z,76.80
